Time;durP1;ratioP1;P1;durP2;ratioP2;P2;SDS_P1;SDS_P2;PMS_P1;PMS_P2;Temp;Humidity;BMP_temperature;BMP_pressure;BME280_temperature;BME280_humidity;BME280_pressure;Samples;Min_cycle;Max_cycle;Signal;HPM_P1;HPM_P2
2023/02/27 00:16:32;;;;;;;;;;;;;;;;;;;;;
2023/02/27 00:27:55;;;;;;;6.38;1.75;;;-0.10;99.90;;;;;;4873850;29;20069;-81
2023/02/27 00:50:01;;;;;;;6.13;1.63;;;-0.80;99.90;;;;;;4896342;29;20108;-82
2023/02/27 00:53:46;;;;;;;4.47;1.40;;;0.30;99.90;;;;;;4869113;29;20044;-81
2023/02/27 01:05:25;;;;;;;5.90;1.30;;;-0.50;99.90;;;;;;4830661;29;20045;-82
2023/02/27 01:09:17;;;;;;;9.27;2.05;;;-0.50;99.90;;;;;;4856053;29;20077;-82
2023/02/27 01:20:33;;;;;;;7.53;2.42;;;-0.50;99.90;;;;;;4846146;29;20048;-81
2023/02/27 01:24:18;;;;;;;9.15;2.33;;;-0.40;99.90;;;;;;4845759;29;20056;-82
2023/02/27 01:28:16;;;;;;;5.15;2.53;;;0.00;99.90;;;;;;4867532;29;20062;-82
2023/02/27 01:39:28;;;;;;;7.25;3.50;;;-0.60;99.90;;;;;;4948674;28;20077;-82
2023/02/27 01:46:42;;;;;;;11.90;3.92;;;-0.60;99.90;;;;;;4999804;28;20443;-82
2023/02/27 01:50:44;;;;;;;7.72;3.03;;;-0.20;99.90;;;;;;5010697;28;20099;-82
2023/02/27 01:54:52;;;;;;;9.00;3.25;;;-0.60;99.90;;;;;;4946218;29;20124;-82
2023/02/27 01:58:16;;;;;;;6.53;2.23;;;-0.30;99.90;;;;;;4905550;29;20060;-82
2023/02/27 02:01:51;;;;;;;7.10;2.58;;;-0.50;99.90;;;;;;4881881;29;20072;-82
2023/02/27 02:05:37;;;;;;;6.30;2.83;;;-0.50;99.90;;;;;;4922627;28;20047;-82
2023/02/27 02:09:30;;;;;;;8.77;2.88;;;-0.60;99.90;;;;;;4958437;28;20057;-82
2023/02/27 02:12:56;;;;;;;4.88;2.30;;;-0.80;99.90;;;;;;4948787;28;20086;-82
2023/02/27 02:16:50;;;;;;;9.25;2.22;;;-0.60;99.90;;;;;;5030361;28;20052;-81
2023/02/27 02:20:41;;;;;;;5.90;2.35;;;-0.70;99.90;;;;;;4981774;28;20064;-82
2023/02/27 02:24:23;;;;;;;7.35;2.65;;;-0.70;99.90;;;;;;4980730;28;20514;-82
2023/02/27 02:27:41;;;;;;;5.57;2.30;;;-0.80;99.90;;;;;;4934826;28;20074;-82
2023/02/27 02:35:16;;;;;;;6.68;2.20;;;-0.70;99.90;;;;;;4978890;28;20482;-82
2023/02/27 02:39:11;;;;;;;6.72;2.58;;;-0.80;99.90;;;;;;4892762;29;20056;-82
2023/02/27 02:46:22;;;;;;;8.35;2.42;;;-0.20;99.90;;;;;;4935521;29;20497;-82
2023/02/27 02:54:09;;;;;;;9.45;2.30;;;-0.60;99.90;;;;;;5031818;28;20103;-82
2023/02/27 02:57:19;;;;;;;5.20;2.13;;;-0.30;99.90;;;;;;5030255;28;20041;-82
2023/02/27 03:01:01;;;;;;;6.35;2.08;;;-0.30;99.90;;;;;;5024465;28;20049;-82
2023/02/27 03:04:48;;;;;;;7.90;2.45;;;-0.30;99.90;;;;;;5032415;28;20106;-82
2023/02/27 03:08:23;;;;;;;5.43;2.85;;;-0.20;99.90;;;;;;5029115;28;20116;-82
2023/02/27 03:15:54;;;;;;;7.05;2.17;;;-0.80;99.90;;;;;;5030489;28;20072;-82
2023/02/27 03:19:00;;;;;;;9.43;2.15;;;-0.10;99.90;;;;;;5016752;28;20490;-82
2023/02/27 03:22:33;;;;;;;5.72;2.42;;;0.40;99.90;;;;;;5030234;28;20499;-82
2023/02/27 03:25:39;;;;;;;8.02;2.40;;;0.00;99.90;;;;;;4996161;28;20132;-82
2023/02/27 03:28:50;;;;;;;5.57;2.70;;;0.20;99.90;;;;;;5001738;28;20435;-82
2023/02/27 03:32:49;;;;;;;9.23;2.53;;;0.50;99.90;;;;;;5009925;28;20132;-82
2023/02/27 03:36:28;;;;;;;5.05;2.88;;;0.00;99.90;;;;;;5004654;28;20093;-81
2023/02/27 03:40:08;;;;;;;6.32;2.25;;;-0.10;99.90;;;;;;5008300;28;20065;-82
2023/02/27 03:43:25;;;;;;;9.43;3.22;;;-0.10;99.90;;;;;;4969970;28;20050;-82
2023/02/27 03:46:49;;;;;;;;;;;-0.20;99.90;;;;;;4989188;28;20053;-82
2023/02/27 03:54:03;;;;;;;6.30;1.90;;;0.30;99.90;;;;;;5047010;28;20565;-82
2023/02/27 03:57:42;;;;;;;5.80;2.65;;;-0.90;99.90;;;;;;4999482;28;20124;-82
2023/02/27 04:01:03;;;;;;;7.15;2.47;;;-0.30;99.90;;;;;;5025057;28;20053;-82
2023/02/27 04:04:04;;;;;;;5.28;2.38;;;0.40;99.90;;;;;;5024795;28;20185;-82
2023/02/27 04:07:55;;;;;;;6.20;2.33;;;-0.20;99.90;;;;;;5008188;28;20045;-81
2023/02/27 04:11:57;;;;;;;5.85;2.50;;;-0.30;99.90;;;;;;5009510;28;20499;-82
2023/02/27 04:15:06;;;;;;;6.57;2.17;;;-0.40;99.90;;;;;;4950701;28;20202;-82
2023/02/27 04:18:40;;;;;;;5.20;2.30;;;-0.50;99.90;;;;;;4928602;28;20423;-82
2023/02/27 04:22:04;;;;;;;4.88;2.50;;;-0.40;99.90;;;;;;4957614;28;20063;-82
2023/02/27 04:25:59;;;;;;;5.90;2.33;;;-0.40;99.90;;;;;;4988120;28;20426;-82
2023/02/27 04:29:26;;;;;;;7.00;2.47;;;-0.50;99.90;;;;;;5026044;28;20809;-82
2023/02/27 04:32:21;;;;;;;8.60;2.80;;;-0.60;99.90;;;;;;4977095;28;20041;-82
2023/02/27 04:35:41;;;;;;;6.38;3.38;;;-0.60;99.90;;;;;;5030638;28;20116;-82
2023/02/27 04:39:53;;;;;;;8.48;3.22;;;-0.60;99.90;;;;;;5028633;28;20041;-82
2023/02/27 04:43:17;;;;;;;8.32;3.30;;;-0.60;99.90;;;;;;4989735;28;20105;-82
2023/02/27 04:46:19;;;;;;;4.45;2.53;;;0.00;99.90;;;;;;4996344;28;20423;-82
2023/02/27 04:49:37;;;;;;;5.63;2.70;;;-0.50;99.90;;;;;;5020099;28;20510;-82
2023/02/27 04:52:56;;;;;;;;;;;-0.80;99.90;;;;;;5033393;28;20043;-81
2023/02/27 04:56:10;;;;;;;6.78;2.67;;;-0.80;99.90;;;;;;5043364;28;19921;-81
2023/02/27 04:59:01;;;;;;;8.75;2.53;;;-0.10;99.90;;;;;;5035736;28;20075;-83
2023/02/27 05:01:50;;;;;;;9.27;2.28;;;-0.90;99.90;;;;;;5015106;28;20034;-82
2023/02/27 05:04:25;;;;;;;9.20;2.30;;;-0.90;99.90;;;;;;5002827;28;20124;-82
2023/02/27 05:07:08;;;;;;;4.65;2.40;;;-0.70;99.90;;;;;;5031834;28;20034;-82
2023/02/27 05:10:28;;;;;;;;;;;-0.60;99.90;;;;;;5034391;28;20400;-81
2023/02/27 05:13:42;;;;;;;6.87;2.60;;;-0.80;99.90;;;;;;5033462;28;20007;-82
2023/02/27 05:17:00;;;;;;;7.18;2.53;;;-0.70;99.90;;;;;;5008637;28;20280;-82
2023/02/27 05:19:47;;;;;;;7.35;2.22;;;-0.90;99.90;;;;;;5033658;28;20045;-82
2023/02/27 05:22:52;;;;;;;5.40;1.88;;;-0.30;99.90;;;;;;5028400;28;20547;-82
2023/02/27 05:25:55;;;;;;;5.53;2.10;;;-1.00;99.90;;;;;;5031996;28;20467;-82
2023/02/27 05:29:13;;;;;;;5.25;1.77;;;-0.40;99.90;;;;;;5017313;28;20077;-82
2023/02/27 05:32:04;;;;;;;4.57;1.50;;;-1.20;99.90;;;;;;5032491;28;20148;-82
2023/02/27 05:35:02;;;;;;;6.78;1.65;;;-0.60;99.90;;;;;;5028563;28;20049;-82
2023/02/27 05:38:50;;;;;;;5.57;1.70;;;-1.70;99.90;;;;;;5029715;28;20048;-82
2023/02/27 05:42:03;;;;;;;7.32;1.30;;;-0.90;99.90;;;;;;4987132;28;20179;-81
2023/02/27 05:45:20;;;;;;;4.38;1.70;;;-1.00;99.90;;;;;;4966476;28;20519;-81
2023/02/27 05:48:32;;;;;;;3.45;1.33;;;-0.20;99.90;;;;;;5013081;28;20034;-82
2023/02/27 05:51:23;;;;;;;3.35;1.35;;;-0.50;99.90;;;;;;5033091;28;20060;-82
2023/02/27 05:54:34;;;;;;;12.30;1.67;;;-0.30;99.90;;;;;;5002002;28;20050;-82
2023/02/27 05:57:18;;;;;;;4.88;1.20;;;-0.20;99.90;;;;;;4986103;28;20056;-82
2023/02/27 06:00:34;;;;;;;4.93;1.40;;;-0.70;99.90;;;;;;5034043;28;20120;-81
2023/02/27 06:03:33;;;;;;;4.30;1.40;;;-1.00;99.90;;;;;;5032635;28;20061;-82
2023/02/27 06:06:46;;;;;;;;;;;;;;;;;;;;;
2023/02/27 06:12:36;;;;;;;3.92;1.10;;;-1.30;99.90;;;;;;5033470;28;20516;-81
2023/02/27 06:15:19;;;;;;;4.35;1.73;;;-0.90;99.90;;;;;;5013697;28;20400;-81
2023/02/27 06:17:49;;;;;;;6.72;1.13;;;-1.10;99.90;;;;;;4999354;28;20045;-82
2023/02/27 06:20:27;;;;;;;5.80;1.50;;;0.20;99.90;;;;;;5032924;28;20037;-81
2023/02/27 06:23:01;;;;;;;3.42;1.13;;;-0.50;99.90;;;;;;5032151;28;20475;-82
2023/02/27 06:25:49;;;;;;;11.63;1.58;;;-0.70;99.90;;;;;;5026509;28;20487;-81
2023/02/27 06:28:27;;;;;;;8.23;1.55;;;-0.70;99.90;;;;;;5006471;28;20040;-81
2023/02/27 06:31:26;;;;;;;7.95;1.90;;;-1.00;99.90;;;;;;5031064;28;20528;-81
2023/02/27 06:34:12;;;;;;;5.53;1.58;;;-0.40;99.90;;;;;;5026377;28;20045;-81
2023/02/27 06:36:55;;;;;;;4.97;1.63;;;-0.40;99.90;;;;;;5038661;28;20069;-81
2023/02/27 06:43:14;;;;;;;4.72;1.40;;;-0.90;99.90;;;;;;5016172;28;20048;-82
2023/02/27 06:45:52;;;;;;;6.57;1.35;;;-0.20;99.90;;;;;;5020786;28;20133;-82
2023/02/27 06:52:06;;;;;;;3.10;1.10;;;-0.70;99.90;;;;;;5022198;28;20133;-81
2023/02/27 06:55:20;;;;;;;;;;;;;;;;;;;;;
2023/02/27 06:58:04;;;;;;;8.00;1.60;;;-0.40;99.90;;;;;;5030827;28;20483;-82
2023/02/27 07:00:39;;;;;;;3.80;1.30;;;-0.50;99.90;;;;;;5013877;28;20057;-81
2023/02/27 07:03:35;;;;;;;6.93;1.53;;;-0.40;99.90;;;;;;5027002;28;20041;-82
2023/02/27 07:06:25;;;;;;;8.10;1.60;;;-0.30;99.90;;;;;;5031727;28;20053;-82
2023/02/27 07:08:58;;;;;;;4.70;1.58;;;-0.80;99.90;;;;;;5031051;28;20045;-81
2023/02/27 07:11:33;;;;;;;5.25;1.20;;;-0.50;99.90;;;;;;5030529;28;20496;-82
2023/02/27 07:20:19;;;;;;;6.05;1.50;;;-0.10;99.90;;;;;;4999344;28;20495;-82
2023/02/27 07:24:04;;;;;;;7.70;2.40;;;-1.20;99.90;;;;;;5002322;28;20042;-82
2023/02/27 07:26:46;;;;;;;9.40;1.83;;;0.20;99.90;;;;;;5019258;28;20049;-82
2023/02/27 07:29:30;;;;;;;9.98;1.55;;;0.40;99.90;;;;;;5012945;28;20160;-82
2023/02/27 07:32:15;;;;;;;6.55;1.45;;;-0.20;99.90;;;;;;5031195;28;20287;-81
2023/02/27 07:35:02;;;;;;;4.97;1.20;;;0.20;99.90;;;;;;5013023;28;20051;-81
2023/02/27 07:37:57;;;;;;;8.02;1.50;;;0.70;99.90;;;;;;5031820;28;20064;-82
2023/02/27 07:40:58;;;;;;;4.78;1.15;;;0.30;99.90;;;;;;5011607;28;20049;-82
2023/02/27 07:43:37;;;;;;;6.38;1.42;;;0.50;99.90;;;;;;5027587;28;20615;-82
2023/02/27 07:46:47;;;;;;;11.30;1.70;;;0.70;99.90;;;;;;5020731;28;20045;-82
2023/02/27 07:49:43;;;;;;;6.00;1.70;;;0.70;99.90;;;;;;5030962;28;20095;-82
2023/02/27 07:52:55;;;;;;;8.27;1.70;;;0.70;99.90;;;;;;5031906;28;20051;-81
2023/02/27 07:56:14;;;;;;;;;;;0.70;99.90;;;;;;5031769;28;20076;-82
2023/02/27 07:59:26;;;;;;;8.05;1.80;;;0.60;99.90;;;;;;5024154;28;20275;-82
2023/02/27 08:03:24;;;;;;;8.02;1.73;;;0.40;99.90;;;;;;4906085;29;20404;-82
2023/02/27 08:07:29;;;;;;;6.50;1.85;;;1.10;99.90;;;;;;4925950;29;20115;-82
2023/02/27 08:15:11;;;;;;;5.82;1.63;;;1.30;99.90;;;;;;4889578;29;20072;-82
2023/02/27 09:22:35;;;;;;;8.07;2.35;;;4.50;99.90;;;;;;4931284;29;20042;-82
2023/02/27 10:03:25;;;;;;;;;;;;;;;;;;;;;
2023/02/27 10:10:52;;;;;;;4.20;1.35;;;6.00;99.90;;;;;;4965759;28;20089;-82
2023/02/27 10:33:17;;;;;;;6.07;1.10;;;5.90;99.90;;;;;;4989002;28;20100;-83
2023/02/27 10:40:46;;;;;;;4.45;0.60;;;5.90;99.90;;;;;;4871979;29;20559;-83
2023/02/27 10:44:41;;;;;;;3.72;0.68;;;6.20;99.90;;;;;;4860647;29;20129;-82
2023/02/27 10:52:19;;;;;;;3.67;0.52;;;6.70;99.90;;;;;;4894422;29;20055;-82
2023/02/27 11:00:10;;;;;;;;;;;;;;;;;;;;;
2023/02/27 11:23:00;;;;;;;;;;;;;;;;;;;;;
2023/02/27 11:38:06;;;;;;;1.75;0.43;;;6.80;99.90;;;;;;4826460;29;20054;-83
2023/02/27 11:42:18;;;;;;;2.22;0.43;;;6.90;99.90;;;;;;4879857;29;20051;-83
2023/02/27 11:49:35;;;;;;;0.73;0.30;;;7.00;99.90;;;;;;4889689;29;20067;-83
2023/02/27 11:53:28;;;;;;;1.27;0.20;;;6.70;99.90;;;;;;4892980;29;20066;-84
2023/02/27 11:57:04;;;;;;;1.90;0.20;;;7.20;99.90;;;;;;4914133;29;20494;-83
2023/02/27 12:00:45;;;;;;;2.63;0.40;;;7.00;99.90;;;;;;4968489;28;20054;-83
2023/02/27 12:04:43;;;;;;;2.05;0.30;;;7.20;99.90;;;;;;4959347;28;20054;-83
2023/02/27 12:08:16;;;;;;;2.28;0.28;;;7.50;99.90;;;;;;4946438;28;20074;-83
2023/02/27 12:12:35;;;;;;;1.55;0.30;;;7.70;99.90;;;;;;4938052;29;20058;-83
2023/02/27 12:16:15;;;;;;;1.52;0.20;;;7.30;99.90;;;;;;4854873;29;20093;-82
2023/02/27 12:19:18;;;;;;;1.65;0.20;;;6.90;99.90;;;;;;4835322;29;20086;-82
2023/02/27 12:22:48;;;;;;;2.35;0.35;;;7.00;99.90;;;;;;4937975;28;20066;-83
2023/02/27 12:33:45;;;;;;;5.63;0.40;;;6.80;99.90;;;;;;5028620;28;20044;-83
2023/02/27 12:40:35;;;;;;;2.72;0.20;;;6.30;99.90;;;;;;5011184;28;20681;-83
2023/02/27 12:43:40;;;;;;;1.90;0.22;;;6.70;99.90;;;;;;5009405;28;20042;-83
2023/02/27 12:46:49;;;;;;;1.92;0.28;;;6.30;99.90;;;;;;5028593;28;20088;-82
2023/02/27 12:50:56;;;;;;;4.50;0.25;;;7.30;99.90;;;;;;5003345;28;20045;-83
2023/02/27 12:54:42;;;;;;;1.98;0.20;;;6.90;99.90;;;;;;4951669;28;20305;-83
2023/02/27 12:58:01;;;;;;;0.95;0.22;;;7.10;99.90;;;;;;4995751;28;20079;-84
2023/02/27 13:01:13;;;;;;;1.52;0.20;;;7.10;99.90;;;;;;5026264;28;20061;-83
2023/02/27 13:04:58;;;;;;;2.25;0.50;;;7.00;99.90;;;;;;5011134;28;20120;-82
2023/02/27 13:12:15;;;;;;;2.42;0.20;;;7.60;99.90;;;;;;5032352;28;20047;-83
2023/02/27 13:15:40;;;;;;;1.05;0.20;;;7.80;99.90;;;;;;5030435;28;20542;-82
2023/02/27 13:19:41;;;;;;;2.25;1.05;;;7.30;99.90;;;;;;4993144;28;20111;-83
2023/02/27 13:22:52;;;;;;;1.85;0.30;;;7.10;99.90;;;;;;4977125;28;20050;-83
2023/02/27 13:25:56;;;;;;;0.85;0.52;;;7.00;99.90;;;;;;5017754;28;20151;-82
2023/02/27 13:30:12;;;;;;;3.75;0.40;;;7.20;99.90;;;;;;5031479;28;20075;-83
2023/02/27 13:37:36;;;;;;;2.28;0.47;;;6.40;99.90;;;;;;4935316;29;20679;-83
2023/02/27 13:41:09;;;;;;;2.35;0.40;;;6.90;99.90;;;;;;4905214;29;20045;-84
2023/02/27 13:44:40;;;;;;;2.00;0.50;;;7.30;99.90;;;;;;4920849;29;20224;-83
2023/02/27 13:48:59;;;;;;;0.85;0.30;;;7.60;99.90;;;;;;4948957;29;20058;-83
2023/02/27 13:55:36;;;;;;;1.13;0.30;;;8.30;99.90;;;;;;4939913;29;20146;-82
2023/02/27 13:58:23;;;;;;;5.95;0.40;;;7.70;99.90;;;;;;5008914;28;20556;-82
2023/02/27 14:01:26;;;;;;;3.25;0.30;;;7.70;99.90;;;;;;5007519;28;20057;-82
2023/02/27 14:04:15;;;;;;;4.15;0.40;;;7.60;99.90;;;;;;5019217;28;20060;-82
2023/02/27 14:07:43;;;;;;;1.20;0.20;;;7.40;99.90;;;;;;5026240;28;20076;-82
2023/02/27 14:10:59;;;;;;;1.17;0.30;;;6.90;99.90;;;;;;5031740;28;20056;-83
2023/02/27 14:14:12;;;;;;;1.23;0.20;;;7.10;99.90;;;;;;4958582;28;20146;-83
2023/02/27 14:17:40;;;;;;;0.95;0.20;;;7.30;99.90;;;;;;4979115;28;20054;-83
2023/02/27 14:21:05;;;;;;;1.60;0.30;;;7.40;99.90;;;;;;5017126;28;20060;-82
2023/02/27 14:23:59;;;;;;;0.90;0.20;;;7.10;99.90;;;;;;5028495;28;20147;-83
2023/02/27 14:26:38;;;;;;;2.05;0.30;;;7.00;99.90;;;;;;5012346;28;20080;-83
2023/02/27 14:29:37;;;;;;;4.20;0.40;;;7.70;99.90;;;;;;5012211;28;20076;-83
2023/02/27 14:33:16;;;;;;;1.48;0.20;;;7.20;99.90;;;;;;4964194;28;20050;-83
2023/02/27 14:36:15;;;;;;;1.35;0.30;;;7.70;99.90;;;;;;5014014;28;20480;-83
2023/02/27 14:39:22;;;;;;;1.38;0.20;;;7.30;99.90;;;;;;4995067;28;20049;-84
2023/02/27 14:42:32;;;;;;;1.05;0.40;;;7.40;99.90;;;;;;5010673;28;20054;-83
2023/02/27 14:45:24;;;;;;;1.27;0.20;;;7.20;99.90;;;;;;5006663;28;20112;-83
2023/02/27 14:47:53;;;;;;;2.35;0.35;;;7.20;99.90;;;;;;5016215;28;20057;-83
2023/02/27 14:50:41;;;;;;;2.35;0.40;;;7.30;99.90;;;;;;4976867;28;20053;-83
2023/02/27 14:54:32;;;;;;;2.15;0.50;;;7.00;99.90;;;;;;4969499;28;20141;-84
2023/02/27 14:58:17;;;;;;;4.22;0.32;;;7.00;99.90;;;;;;5024182;28;20037;-83
2023/02/27 15:02:32;;;;;;;0.88;0.28;;;6.90;99.90;;;;;;5022774;28;20123;-84
2023/02/27 15:10:09;;;;;;;1.55;0.20;;;6.80;99.90;;;;;;4915949;28;20089;-84
2023/02/27 15:14:13;;;;;;;2.63;0.30;;;6.90;99.90;;;;;;4968112;28;20129;-82
2023/02/27 15:18:12;;;;;;;2.17;0.40;;;6.80;99.90;;;;;;5016649;28;20403;-82
2023/02/27 15:22:02;;;;;;;2.47;0.25;;;7.00;99.90;;;;;;4916521;29;20143;-84
2023/02/27 15:25:15;;;;;;;3.22;0.30;;;6.90;99.90;;;;;;4963855;28;20069;-83
2023/02/27 15:28:21;;;;;;;3.38;0.30;;;7.00;99.90;;;;;;5009340;28;20060;-83
2023/02/27 15:39:02;;;;;;;1.63;0.32;;;6.90;99.90;;;;;;5002419;28;20127;-83
2023/02/27 15:46:41;;;;;;;0.68;0.28;;;6.90;99.90;;;;;;4974875;28;20041;-83
2023/02/27 15:53:50;;;;;;;3.00;0.20;;;6.60;99.90;;;;;;4949549;28;20534;-84
2023/02/27 16:20:19;;;;;;;;;;;;;;;;;;;;;
2023/02/27 16:57:26;;;;;;;2.83;0.22;;;6.00;99.90;;;;;;4958496;28;20114;-82
2023/02/27 19:48:18;;;;;;;;;;;;;;;;;;;;;
2023/02/27 20:09:49;;;;;;;;;;;;;;;;;;;;;
2023/02/27 20:35:30;;;;;;;3.03;1.17;;;3.70;99.90;;;;;;6014775;23;20333;-83
2023/02/27 21:34:52;;;;;;;;;;;;;;;;;;;;;
2023/02/27 21:37:55;;;;;;;7.50;2.50;;;3.70;99.90;;;;;;6082807;23;20085;-82
2023/02/27 21:40:35;;;;;;;3.78;1.73;;;3.80;99.90;;;;;;6046217;23;20022;-82
2023/02/27 21:43:24;;;;;;;;;;;;;;;;;;;;;
2023/02/27 21:50:12;;;;;;;4.45;1.60;;;3.60;99.90;;;;;;6068092;23;20058;-83
2023/02/27 21:53:14;;;;;;;7.35;1.63;;;3.90;99.90;;;;;;6152647;23;20079;-82
2023/02/27 21:55:47;;;;;;;10.55;2.00;;;3.90;99.90;;;;;;6128869;23;20040;-82
2023/02/27 21:58:16;;;;;;;8.15;2.28;;;3.80;99.90;;;;;;6152517;23;20013;-82
2023/02/27 22:00:56;;;;;;;6.80;2.20;;;3.70;99.90;;;;;;6152532;23;20017;-83
2023/02/27 22:03:40;;;;;;;5.93;1.48;;;3.90;99.90;;;;;;6128552;23;20116;-82
2023/02/27 22:06:20;;;;;;;4.30;1.85;;;4.50;99.90;;;;;;6152566;23;20021;-82
2023/02/27 22:09:03;;;;;;;7.82;1.60;;;3.50;99.90;;;;;;6127229;23;20342;-82
2023/02/27 22:11:43;;;;;;;10.35;1.77;;;3.70;99.90;;;;;;6091931;23;20029;-82
2023/02/27 22:14:20;;;;;;;7.15;1.67;;;4.20;99.90;;;;;;6126237;23;20049;-83
2023/02/27 22:20:30;;;;;;;4.53;1.60;;;3.40;99.90;;;;;;6138485;23;20350;-83
2023/02/27 22:23:12;;;;;;;6.03;2.00;;;3.40;99.90;;;;;;6143787;23;20021;-83
2023/02/27 22:26:04;;;;;;;4.95;1.45;;;3.10;99.90;;;;;;6130685;23;20056;-82
2023/02/27 22:28:46;;;;;;;5.22;1.75;;;3.00;99.90;;;;;;6096865;23;20149;-83
2023/02/27 22:31:31;;;;;;;7.40;1.90;;;3.30;99.90;;;;;;6132374;23;20017;-82
2023/02/27 22:34:20;;;;;;;7.45;2.22;;;3.10;99.90;;;;;;6131834;23;20032;-83
2023/02/27 22:36:52;;;;;;;6.32;1.92;;;3.30;99.90;;;;;;6133232;23;20013;-82
2023/02/27 22:39:20;;;;;;;5.95;2.35;;;3.60;99.90;;;;;;6132913;23;20017;-82
2023/02/27 22:41:51;;;;;;;7.10;2.28;;;3.40;99.90;;;;;;6132761;23;20075;-82
2023/02/27 22:44:18;;;;;;;6.40;2.75;;;3.80;99.90;;;;;;6132618;23;20385;-82
2023/02/27 22:46:48;;;;;;;7.63;2.15;;;3.80;99.90;;;;;;6133417;23;20023;-82
2023/02/27 22:49:42;;;;;;;7.18;2.33;;;3.60;99.90;;;;;;6132912;23;20104;-83
2023/02/27 23:04:27;;;;;;;10.45;2.38;;;3.70;99.90;;;;;;6183368;23;20039;-82
2023/02/27 23:30:34;;;;;;;6.85;2.45;;;3.70;99.90;;;;;;5888121;24;20123;-82
2023/02/27 23:34:37;;;;;;;6.30;2.40;;;3.00;99.90;;;;;;5868234;24;20086;-82
2023/02/27 23:38:21;;;;;;;7.97;2.95;;;4.50;99.90;;;;;;5879928;24;20150;-82
